createdAt,value
2022-08-30T00:02:43.834Z,91.62
2022-08-30T00:07:47.177Z,91.58
2022-08-30T00:12:52.075Z,91.65
2022-08-30T00:17:58.208Z,91.78
2022-08-30T00:23:04.259Z,91.71
2022-08-30T00:28:09.819Z,91.63
2022-08-30T00:33:14.004Z,91.92
2022-08-30T00:38:17.030Z,91.80
2022-08-30T00:43:29.089Z,91.81
2022-08-30T00:48:32.337Z,92.01
2022-08-30T00:53:38.421Z,92.23
2022-08-30T00:58:48.132Z,92.27
2022-08-30T01:03:51.287Z,92.49
2022-08-30T01:08:54.128Z,92.49
2022-08-30T01:13:59.037Z,92.77
2022-08-30T01:19:02.580Z,92.64
2022-08-30T01:24:10.109Z,92.71
2022-08-30T01:29:18.567Z,92.86
2022-08-30T01:34:21.617Z,92.76
2022-08-30T01:39:26.026Z,92.31
2022-08-30T01:44:28.844Z,92.58
2022-08-30T01:49:31.782Z,92.34
2022-08-30T01:54:39.581Z,92.51
2022-08-30T01:59:47.531Z,92.76
2022-08-30T02:04:51.759Z,92.63
2022-08-30T02:09:56.834Z,92.58
2022-08-30T02:14:59.651Z,92.65
2022-08-30T02:20:02.764Z,92.51
2022-08-30T02:25:11.219Z,92.41
2022-08-30T02:30:23.957Z,92.48
2022-08-30T02:35:27.388Z,92.39
2022-08-30T02:40:31.991Z,92.15
2022-08-30T02:45:35.106Z,92.49
2022-08-30T02:50:41.503Z,92.73
2022-08-30T02:55:46.600Z,93.12
2022-08-30T03:00:49.516Z,93.31
2022-08-30T03:05:55.369Z,93.46
2022-08-30T03:11:00.129Z,93.47
2022-08-30T03:16:03.310Z,93.80
2022-08-30T03:21:11.614Z,93.50
2022-08-30T03:26:15.978Z,93.66
2022-08-30T03:31:18.813Z,93.77
2022-08-30T03:36:22.116Z,94.02
2022-08-30T03:41:26.286Z,93.90
2022-08-30T03:46:31.831Z,93.82
2022-08-30T03:51:36.574Z,93.73
2022-08-30T03:56:41.004Z,93.71
2022-08-30T04:01:45.733Z,93.75
2022-08-30T04:06:48.782Z,93.75
2022-08-30T04:11:52.931Z,93.47
2022-08-30T04:16:55.731Z,93.31
2022-08-30T04:21:58.574Z,93.48
2022-08-30T04:27:02.949Z,93.67
2022-08-30T04:32:06.030Z,93.72
2022-08-30T04:37:09.902Z,93.56
2022-08-30T04:42:14.268Z,93.24
2022-08-30T04:47:18.301Z,92.99
2022-08-30T04:52:21.354Z,92.59
2022-08-30T04:57:26.560Z,92.50
2022-08-30T05:02:29.462Z,92.64
2022-08-30T05:07:33.432Z,92.66
2022-08-30T05:12:37.619Z,92.53
2022-08-30T05:17:41.228Z,92.30
2022-08-30T05:22:49.951Z,92.15
2022-08-30T05:27:58.195Z,92.00
2022-08-30T05:33:00.991Z,91.93
2022-08-30T05:38:03.750Z,91.84
2022-08-30T05:43:08.178Z,91.59
2022-08-30T05:48:13.113Z,91.54
2022-08-30T05:53:15.967Z,91.30
2022-08-30T05:58:20.108Z,91.12
2022-08-30T06:03:23.221Z,90.80
2022-08-30T06:08:26.081Z,90.76
2022-08-30T06:13:30.242Z,90.56
2022-08-30T06:18:33.065Z,90.10
2022-08-30T06:23:36.257Z,90.00
2022-08-30T06:28:40.536Z,89.99
2022-08-30T06:33:44.726Z,89.67
2022-08-30T06:38:52.044Z,89.54
2022-08-30T06:44:03.893Z,89.21
2022-08-30T06:49:08.564Z,89.04
2022-08-30T06:54:13.093Z,88.65
2022-08-30T06:59:17.901Z,88.19
2022-08-30T07:04:20.708Z,87.49
2022-08-30T07:09:23.609Z,85.77
2022-08-30T07:14:27.786Z,84.37
2022-08-30T07:19:30.605Z,83.18
2022-08-30T07:24:33.401Z,80.81
2022-08-30T07:29:37.583Z,79.28
2022-08-30T07:34:40.392Z,78.94
2022-08-30T07:39:47.572Z,78.44
2022-08-30T07:44:56.515Z,78.42
2022-08-30T07:50:00.957Z,76.63
2022-08-30T07:55:05.289Z,75.44
2022-08-30T08:00:11.338Z,73.98
2022-08-30T08:05:17.639Z,72.99
2022-08-30T08:10:21.787Z,72.33
2022-08-30T08:15:26.484Z,70.54
2022-08-30T08:20:29.357Z,69.13
2022-08-30T08:25:32.427Z,69.80
2022-08-30T08:30:38.848Z,69.78
2022-08-30T08:35:41.679Z,69.93
2022-08-30T08:40:55.481Z,69.88
2022-08-30T08:46:05.175Z,70.06
2022-08-30T08:51:28.852Z,68.01
2022-08-30T08:56:32.209Z,66.88
2022-08-30T09:01:38.500Z,68.51
2022-08-30T09:06:53.399Z,67.80
2022-08-30T09:11:56.440Z,65.22
2022-08-30T09:17:03.525Z,64.62
2022-08-30T09:22:15.147Z,64.56
2022-08-30T09:27:22.124Z,64.06
2022-08-30T09:32:31.922Z,63.83
2022-08-30T09:37:38.956Z,63.30
2022-08-30T09:42:42.627Z,63.48
2022-08-30T09:47:46.873Z,63.38
2022-08-30T09:53:15.815Z,62.87
2022-08-30T09:58:42.687Z,63.36
2022-08-30T10:03:55.855Z,62.37
2022-08-30T10:09:07.674Z,62.07
2022-08-30T10:14:40.157Z,62.04
2022-08-30T10:19:59.204Z,63.21
2022-08-30T10:25:06.515Z,62.50
2022-08-30T10:30:14.332Z,61.47
2022-08-30T10:35:21.771Z,61.66
2022-08-30T10:40:51.070Z,61.67
2022-08-30T10:45:59.024Z,61.39
2022-08-30T10:51:10.819Z,60.01
2022-08-30T10:56:20.517Z,61.23
2022-08-30T11:01:37.767Z,60.19
2022-08-30T11:06:59.302Z,60.22
2022-08-30T11:12:22.646Z,59.42
2022-08-30T11:17:32.238Z,58.24
2022-08-30T11:22:39.370Z,58.93
2022-08-30T11:27:49.407Z,58.46
2022-08-30T11:33:03.316Z,57.59
2022-08-30T11:38:21.851Z,58.80
2022-08-30T11:43:51.580Z,58.54
2022-08-30T11:49:01.976Z,57.21
2022-08-30T11:54:17.262Z,57.02
2022-08-30T11:59:30.860Z,58.40
2022-08-30T12:04:45.394Z,58.07
2022-08-30T12:10:06.262Z,58.08
2022-08-30T12:15:48.020Z,57.49
2022-08-30T12:20:51.001Z,57.83
2022-08-30T12:26:11.123Z,57.38
2022-08-30T12:31:17.562Z,56.43
2022-08-30T12:36:34.926Z,56.09
2022-08-30T12:41:43.868Z,54.67
2022-08-30T12:46:49.417Z,53.61
2022-08-30T12:51:52.299Z,52.60
2022-08-30T12:57:18.963Z,52.35
2022-08-30T13:02:26.890Z,51.58
2022-08-30T13:07:33.402Z,52.54
2022-08-30T13:12:38.436Z,53.18
2022-08-30T13:17:41.260Z,53.36
2022-08-30T13:23:03.182Z,52.56
2022-08-30T13:28:08.487Z,53.27
2022-08-30T13:33:11.646Z,53.43
2022-08-30T13:43:18.520Z,52.42
2022-08-30T13:48:24.876Z,51.07
2022-08-30T13:58:52.228Z,51.37
2022-08-30T14:09:19.048Z,51.19
2022-08-30T14:14:41.420Z,51.51
2022-08-30T14:19:46.231Z,51.86
2022-08-30T14:24:54.147Z,52.16
2022-08-30T14:29:59.923Z,52.66
2022-08-30T14:35:02.753Z,52.97
2022-08-30T14:40:07.734Z,53.59
2022-08-30T14:45:13.181Z,53.43
2022-08-30T14:50:16.391Z,53.81
2022-08-30T14:55:19.480Z,53.73
2022-08-30T15:00:24.055Z,53.48
2022-08-30T15:05:28.618Z,53.33
2022-08-30T15:10:31.482Z,54.00
2022-08-30T15:15:36.632Z,54.55
2022-08-30T15:20:47.435Z,54.42
2022-08-30T15:25:50.259Z,55.04
2022-08-30T15:30:55.506Z,54.95
2022-08-30T15:36:01.486Z,55.61
2022-08-30T15:41:09.180Z,56.21
2022-08-30T15:46:22.907Z,56.95
2022-08-30T15:51:26.347Z,57.83
2022-08-30T15:56:30.685Z,58.33
2022-08-30T16:01:41.506Z,58.75
2022-08-30T16:06:46.532Z,58.90
2022-08-30T16:11:49.555Z,59.58
2022-08-30T16:16:54.329Z,59.99
2022-08-30T16:21:57.575Z,60.17
2022-08-30T16:27:00.441Z,60.21
2022-08-30T16:32:05.030Z,60.68
2022-08-30T16:37:07.846Z,61.08
2022-08-30T16:42:11.325Z,61.99
2022-08-30T16:47:15.572Z,62.99
2022-08-30T16:52:18.586Z,62.80
2022-08-30T16:57:22.225Z,62.85
2022-08-30T17:02:26.574Z,62.39
2022-08-30T17:07:30.659Z,62.96
2022-08-30T17:12:33.614Z,63.21
2022-08-30T17:17:38.128Z,63.85
2022-08-30T17:22:46.175Z,64.85
2022-08-30T17:27:49.230Z,65.80
2022-08-30T17:32:54.573Z,65.95
2022-08-30T17:37:58.368Z,66.86
2022-08-30T17:43:01.365Z,67.44
2022-08-30T17:48:07.049Z,67.86
2022-08-30T17:53:09.884Z,67.98
2022-08-30T17:58:12.884Z,67.96
2022-08-30T18:03:17.445Z,68.10
2022-08-30T18:08:20.306Z,68.67
2022-08-30T18:13:23.531Z,68.83
2022-08-30T18:18:28.547Z,69.02
2022-08-30T18:23:31.952Z,69.11
2022-08-30T18:28:35.347Z,69.36
2022-08-30T18:33:39.643Z,69.72
2022-08-30T18:38:42.862Z,70.05
2022-08-30T18:43:46.085Z,70.29
2022-08-30T18:48:51.214Z,70.10
2022-08-30T18:53:56.154Z,70.17
2022-08-30T18:58:59.032Z,70.46
2022-08-30T19:04:04.816Z,70.91
2022-08-30T19:09:08.970Z,71.36
2022-08-30T19:14:12.378Z,71.67
2022-08-30T19:19:18.772Z,71.96
2022-08-30T19:24:21.735Z,72.20
2022-08-30T19:29:24.578Z,72.32
2022-08-30T19:34:30.516Z,72.45
2022-08-30T19:39:33.368Z,72.78
2022-08-30T19:44:36.698Z,73.14
2022-08-30T19:49:41.094Z,73.19
2022-08-30T19:54:43.933Z,73.33
2022-08-30T19:59:46.784Z,73.49
2022-08-30T20:04:51.487Z,73.78
2022-08-30T20:09:54.446Z,73.75
2022-08-30T20:14:57.270Z,73.95
2022-08-30T20:20:04.408Z,74.25
2022-08-30T20:25:10.824Z,73.80
2022-08-30T20:30:15.278Z,74.33
2022-08-30T20:35:19.892Z,74.57
2022-08-30T20:40:22.962Z,74.63
2022-08-30T20:45:25.830Z,74.86
2022-08-30T20:50:35.211Z,75.15
2022-08-30T20:55:41.565Z,75.30
2022-08-30T21:00:45.662Z,75.50
2022-08-30T21:05:51.148Z,75.51
2022-08-30T21:10:54.565Z,75.74
2022-08-30T21:16:03.633Z,76.18
2022-08-30T21:21:12.610Z,76.43
2022-08-30T21:26:18.078Z,76.55
2022-08-30T21:31:22.629Z,76.71
2022-08-30T21:36:46.549Z,76.97
2022-08-30T21:41:51.169Z,77.00
2022-08-30T21:46:56.200Z,77.43
2022-08-30T21:52:00.512Z,77.62
2022-08-30T21:57:05.247Z,77.87
2022-08-30T22:02:09.148Z,77.86
2022-08-30T22:07:13.468Z,77.93
2022-08-30T22:12:16.385Z,78.37
2022-08-30T22:17:19.281Z,78.49
2022-08-30T22:22:23.409Z,78.94
2022-08-30T22:27:26.232Z,79.06
2022-08-30T22:32:29.083Z,79.16
2022-08-30T22:37:34.022Z,79.26
2022-08-30T22:42:37.213Z,79.25
2022-08-30T22:47:40.065Z,79.51
2022-08-30T22:52:44.324Z,79.63
2022-08-30T22:57:47.126Z,79.65
2022-08-30T23:02:52.597Z,79.66
2022-08-30T23:07:56.919Z,80.05
2022-08-30T23:13:00.534Z,80.09
2022-08-30T23:18:03.479Z,80.10
2022-08-30T23:23:06.530Z,80.17
2022-08-30T23:28:26.639Z,80.29
2022-08-30T23:33:47.217Z,80.51
2022-08-30T23:39:08.537Z,80.63
2022-08-30T23:44:29.009Z,81.10
2022-08-30T23:49:49.321Z,81.30
2022-08-30T23:55:11.036Z,81.40
